地図

経路データ

SID SEASON NUMBER BASIN SUBBASIN NAME ISO_TIME NATURE LAT LON WMO_WIND WMO_PRES WMO_AGENCY TRACK_TYPE DIST2LAND LANDFALL IFLAG USA_AGENCY USA_ATCF_ID USA_LAT USA_LON USA_RECORD USA_STATUS USA_WIND USA_PRES USA_SSHS USA_R34_NE USA_R34_SE USA_R34_SW USA_R34_NW USA_R50_NE USA_R50_SE USA_R50_SW USA_R50_NW USA_R64_NE USA_R64_SE USA_R64_SW USA_R64_NW USA_POCI USA_ROCI USA_RMW USA_EYE TOKYO_LAT TOKYO_LON TOKYO_GRADE TOKYO_WIND TOKYO_PRES TOKYO_R50_DIR TOKYO_R50_LONG TOKYO_R50_SHORT TOKYO_R30_DIR TOKYO_R30_LONG TOKYO_R30_SHORT TOKYO_LAND CMA_LAT CMA_LON CMA_CAT CMA_WIND CMA_PRES HKO_LAT HKO_LON HKO_CAT HKO_WIND HKO_PRES NEWDELHI_LAT NEWDELHI_LON NEWDELHI_GRADE NEWDELHI_WIND NEWDELHI_PRES NEWDELHI_CI NEWDELHI_DP NEWDELHI_POCI REUNION_LAT REUNION_LON REUNION_TYPE REUNION_WIND REUNION_PRES REUNION_TNUM REUNION_CI REUNION_RMW REUNION_R34_NE REUNION_R34_SE REUNION_R34_SW REUNION_R34_NW REUNION_R50_NE REUNION_R50_SE REUNION_R50_SW REUNION_R50_NW REUNION_R64_NE REUNION_R64_SE REUNION_R64_SW REUNION_R64_NW BOM_LAT BOM_LON BOM_TYPE BOM_WIND BOM_PRES BOM_TNUM BOM_CI BOM_RMW BOM_R34_NE BOM_R34_SE BOM_R34_SW BOM_R34_NW BOM_R50_NE BOM_R50_SE BOM_R50_SW BOM_R50_NW BOM_R64_NE BOM_R64_SE BOM_R64_SW BOM_R64_NW BOM_ROCI BOM_POCI BOM_EYE BOM_POS_METHOD BOM_PRES_METHOD NADI_LAT NADI_LON NADI_CAT NADI_WIND NADI_PRES WELLINGTON_LAT WELLINGTON_LON WELLINGTON_WIND WELLINGTON_PRES DS824_LAT DS824_LON DS824_STAGE DS824_WIND DS824_PRES TD9636_LAT TD9636_LON TD9636_STAGE TD9636_WIND TD9636_PRES TD9635_LAT TD9635_LON TD9635_WIND TD9635_PRES TD9635_ROCI NEUMANN_LAT NEUMANN_LON NEUMANN_CLASS NEUMANN_WIND NEUMANN_PRES MLC_LAT MLC_LON MLC_CLASS MLC_WIND MLC_PRES USA_GUST BOM_GUST BOM_GUST_PER REUNION_GUST REUNION_GUST_PER USA_SEAHGT USA_SEARAD_NE USA_SEARAD_SE USA_SEARAD_SW USA_SEARAD_NW STORM_SPEED STORM_DIR
1860011S15076 1860 3 SI MM NOT_NAMED 1860-01-11 06:00:00 NR -14.7000 76.1000 reunion main 2038 2024 _____O________ -1 -14.7000 76.1000 99 9.90000 2 220
1860011S15076 1860 3 SI MM NOT_NAMED 1860-01-11 09:00:00 NR -14.7679 76.0376 main 2024 2024 _____P________ -1 -14.7679 76.0376 99 2 222
1860011S15076 1860 3 SI MM NOT_NAMED 1860-01-11 12:00:00 NR -14.8376 75.9727 main 2024 2010 _____P________ -1 -14.8376 75.9727 99 2 222
1860011S15076 1860 3 SI MM NOT_NAMED 1860-01-11 15:00:00 NR -14.9111 75.9031 main 2010 1996 _____P________ -1 -14.9111 75.9031 99 2 223
1860011S15076 1860 3 SI MM NOT_NAMED 1860-01-11 18:00:00 NR -14.9902 75.8264 main 1996 1982 _____P________ -1 -14.9902 75.8264 99 2 224
1860011S15076 1860 3 SI MM NOT_NAMED 1860-01-11 21:00:00 NR -15.0768 75.7401 main 1982 1968 _____P________ -1 -15.0768 75.7401 99 3 224
1860011S15076 1860 3 SI MM NOT_NAMED 1860-01-12 00:00:00 NR -15.1727 75.6418 main 1968 1954 _____P________ -1 -15.1727 75.6418 99 3 225
1860011S15076 1860 3 SI MM NOT_NAMED 1860-01-12 03:00:00 NR -15.2798 75.5293 main 1954 1940 _____P________ -1 -15.2798 75.5293 99 3 226
1860011S15076 1860 3 SI MM NOT_NAMED 1860-01-12 06:00:00 NR -15.4000 75.4000 reunion main 1940 1926 _____O________ -1 -15.4000 75.4000 99 9.90000 4 227
1860011S15076 1860 3 SI MM NOT_NAMED 1860-01-12 09:00:00 NR -15.5352 75.2518 main 1926 1899 _____P________ -1 -15.5352 75.2518 99 4 227
1860011S15076 1860 3 SI MM NOT_NAMED 1860-01-12 12:00:00 NR -15.6876 75.0836 main 1899 1875 _____P________ -1 -15.6876 75.0836 99 5 227
1860011S15076 1860 3 SI MM NOT_NAMED 1860-01-12 15:00:00 NR -15.8598 74.8944 main 1872 1848 _____P________ -1 -15.8598 74.8944 99 5 226
1860011S15076 1860 3 SI MM NOT_NAMED 1860-01-12 18:00:00 NR -16.0540 74.6833 main 1845 1818 _____P________ -1 -16.0540 74.6833 99 6 226
1860011S15076 1860 3 SI MM NOT_NAMED 1860-01-12 21:00:00 NR -16.2728 74.4494 main 1807 1781 _____P________ -1 -16.2728 74.4494 99 7 225
1860011S15076 1860 3 SI MM NOT_NAMED 1860-01-13 00:00:00 NR -16.5184 74.1917 main 1781 1741 _____P________ -1 -16.5184 74.1917 99 7 225
1860011S15076 1860 3 SI MM NOT_NAMED 1860-01-13 03:00:00 NR -16.7934 73.9089 main 1741 1701 _____P________ -1 -16.7934 73.9089 99 8 224
1860011S15076 1860 3 SI MM NOT_NAMED 1860-01-13 06:00:00 NR -17.1000 73.6000 reunion main 1701 1649 _____O________ -1 -17.1000 73.6000 99 9.90000 10 224
1860011S15076 1860 3 SI MM NOT_NAMED 1860-01-13 09:00:00 NR -17.4797 73.2247 main 1649 1598 _____P________ -1 -17.4797 73.2247 99 11 223
1860011S15076 1860 3 SI MM NOT_NAMED 1860-01-13 12:00:00 NR -17.8980 72.8141 main 1598 1547 _____P________ -1 -17.8980 72.8141 99 12 223
1860011S15076 1860 3 SI MM NOT_NAMED 1860-01-13 15:00:00 NR -18.3403 72.3820 main 1547 1496 _____P________ -1 -18.3403 72.3820 99 12 223
1860011S15076 1860 3 SI MM NOT_NAMED 1860-01-13 18:00:00 NR -18.7918 71.9425 main 1486 1438 _____P________ -1 -18.7918 71.9425 99 12 223
1860011S15076 1860 3 SI MM NOT_NAMED 1860-01-13 21:00:00 NR -19.2379 71.5097 main 1438 1391 _____P________ -1 -19.2379 71.5097 99 12 222
1860011S15076 1860 3 SI MM NOT_NAMED 1860-01-14 00:00:00 NR -19.6641 71.0984 main 1390 1346 _____P________ -1 -19.6641 71.0984 99 11 222
1860011S15076 1860 3 SI MM NOT_NAMED 1860-01-14 03:00:00 NR -20.0562 70.7234 main 1345 1313 _____P________ -1 -20.0562 70.7234 99 10 222
1860011S15076 1860 3 SI MM NOT_NAMED 1860-01-14 06:00:00 NR -20.4000 70.4000 reunion main 1313 1291 _____O________ -1 -20.4000 70.4000 99 9.90000 8 221
1860011S15076 1860 3 SI MM NOT_NAMED 1860-01-14 09:00:00 NR -20.6557 70.1721 main 1291 1271 _____P________ -1 -20.6557 70.1721 99 6 219
1860011S15076 1860 3 SI MM NOT_NAMED 1860-01-14 12:00:00 NR -20.8687 69.9930 main 1271 1260 _____P________ -1 -20.8687 69.9930 99 5 217
1860011S15076 1860 3 SI MM NOT_NAMED 1860-01-14 15:00:00 NR -21.0454 69.8549 main 1260 1250 _____P________ -1 -21.0454 69.8549 99 4 215
1860011S15076 1860 3 SI MM NOT_NAMED 1860-01-14 18:00:00 NR -21.1920 69.7499 main 1240 1240 _____P________ -1 -21.1920 69.7499 99 3 212
1860011S15076 1860 3 SI MM NOT_NAMED 1860-01-14 21:00:00 NR -21.3147 69.6699 main 1241 1231 _____P________ -1 -21.3147 69.6699 99 3 210
1860011S15076 1860 3 SI MM NOT_NAMED 1860-01-15 00:00:00 NR -21.4195 69.6070 main 1231 1231 _____P________ -1 -21.4195 69.6070 99 2 209
1860011S15076 1860 3 SI MM NOT_NAMED 1860-01-15 03:00:00 NR -21.5126 69.5531 main 1232 1222 _____P________ -1 -21.5126 69.5531 99 2 209
1860011S15076 1860 3 SI MM NOT_NAMED 1860-01-15 06:00:00 NR -21.6000 69.5000 reunion main 1223 1213 _____O________ -1 -21.6000 69.5000 99 9.90000 2 210
1860011S15076 1860 3 SI MM NOT_NAMED 1860-01-15 09:00:00 NR -21.6868 69.4411 main 1213 1213 _____P________ -1 -21.6868 69.4411 99 2 214
1860011S15076 1860 3 SI MM NOT_NAMED 1860-01-15 12:00:00 NR -21.7739 69.3759 main 1214 1204 _____P________ -1 -21.7739 69.3759 99 2 215
1860011S15076 1860 3 SI MM NOT_NAMED 1860-01-15 15:00:00 NR -21.8612 69.3051 main 1205 1195 _____P________ -1 -21.8612 69.3051 99 2 219
1860011S15076 1860 3 SI MM NOT_NAMED 1860-01-15 18:00:00 NR -21.9488 69.2297 main 1195 1195 _____P________ -1 -21.9488 69.2297 99 2 220
1860011S15076 1860 3 SI MM NOT_NAMED 1860-01-15 21:00:00 NR -22.0365 69.1506 main 1196 1186 _____P________ -1 -22.0365 69.1506 99 2 220
1860011S15076 1860 3 SI MM NOT_NAMED 1860-01-16 00:00:00 NR -22.1243 69.0687 main 1188 1177 _____P________ -1 -22.1243 69.0687 99 2 221
1860011S15076 1860 3 SI MM NOT_NAMED 1860-01-16 03:00:00 NR -22.2122 68.9848 main 1179 1170 _____P________ -1 -22.2122 68.9848 99 2 222
1860011S15076 1860 3 SI MM NOT_NAMED 1860-01-16 06:00:00 NR -22.3000 68.9000 reunion main 1170 _____O________ -1 -22.3000 68.9000 99 9.90000 2 222

IBTrACS Databaseについて

本データベースは、米国NOAAが公開する1842年以降の世界の熱帯低気圧のベストトラックデータアーカイブInternational Best Track Archive for Climate Stewardship (IBTrACS)を、ウェブで閲覧しやすい形式に変換したものです。

最終更新日:2021-12-03